createdAt,value
2019-04-09T00:00:20.928Z,3.37
2019-04-09T00:03:23.112Z,3.33
2019-04-09T00:05:50.143Z,3.70
2019-04-09T00:08:17.003Z,3.37
2019-04-09T00:10:43.867Z,4.13
2019-04-09T00:13:11.428Z,3.40
2019-04-09T00:15:38.465Z,3.70
2019-04-09T00:18:06.054Z,3.60
2019-04-09T00:20:33.021Z,3.67
2019-04-09T00:22:59.905Z,3.60
2019-04-09T00:25:26.726Z,3.67
2019-04-09T00:27:53.581Z,3.20
2019-04-09T00:30:20.717Z,3.40
2019-04-09T00:32:48.687Z,3.10
2019-04-09T00:35:15.586Z,3.13
2019-04-09T00:37:42.407Z,2.90
2019-04-09T00:40:09.948Z,3.30
2019-04-09T00:42:37.809Z,3.30
2019-04-09T00:45:05.891Z,3.57
2019-04-09T00:47:32.921Z,2.73
2019-04-09T00:50:00.685Z,3.00
2019-04-09T00:52:28.653Z,3.97
2019-04-09T00:54:56.396Z,3.07
2019-04-09T00:57:23.395Z,3.30
2019-04-09T00:59:50.723Z,3.40
2019-04-09T01:02:18.359Z,3.33
2019-04-09T01:04:46.393Z,3.70
2019-04-09T01:07:13.275Z,3.53
2019-04-09T01:09:40.158Z,3.40
2019-04-09T01:12:08.017Z,3.17
2019-04-09T01:14:35.816Z,3.47
2019-04-09T01:17:02.958Z,3.80
2019-04-09T01:19:29.836Z,2.83
2019-04-09T01:21:56.677Z,3.27
2019-04-09T01:24:32.979Z,3.20
2019-04-09T01:27:03.420Z,2.93
2019-04-09T01:29:38.412Z,3.00
2019-04-09T01:32:25.021Z,3.27
2019-04-09T01:35:11.887Z,2.90
2019-04-09T01:37:58.322Z,3.13
2019-04-09T01:40:43.498Z,3.70
2019-04-09T01:43:32.618Z,2.60
2019-04-09T01:46:18.920Z,2.40
2019-04-09T01:49:15.216Z,2.97
2019-04-09T01:51:54.334Z,3.10
2019-04-09T01:54:44.147Z,3.10
2019-04-09T01:57:48.932Z,3.17
2019-04-09T02:00:36.221Z,3.03
2019-04-09T02:03:31.686Z,2.93
2019-04-09T02:06:20.916Z,3.03
2019-04-09T02:09:13.429Z,2.80
2019-04-09T02:11:56.050Z,3.13
2019-04-09T02:14:31.863Z,2.87
2019-04-09T02:17:11.278Z,2.90
2019-04-09T02:19:45.771Z,3.17
2019-04-09T02:22:36.293Z,3.10
2019-04-09T02:25:12.990Z,2.63
2019-04-09T02:28:00.356Z,3.20
2019-04-09T02:30:48.006Z,2.73
2019-04-09T02:33:49.929Z,3.23
2019-04-09T02:36:48.882Z,3.13
2019-04-09T02:39:36.194Z,3.30
2019-04-09T02:42:21.140Z,2.87
2019-04-09T02:45:08.376Z,2.60
2019-04-09T02:47:54.724Z,2.80
2019-04-09T02:50:36.992Z,2.90
2019-04-09T02:53:23.123Z,3.10
2019-04-09T02:56:05.736Z,2.77
2019-04-09T02:58:51.522Z,2.73
2019-04-09T03:01:38.659Z,2.50
2019-04-09T03:04:18.210Z,2.23
2019-04-09T03:07:05.352Z,2.70
2019-04-09T03:09:49.484Z,2.80
2019-04-09T03:12:37.707Z,3.00
2019-04-09T03:15:20.275Z,2.70
2019-04-09T03:18:13.142Z,2.93
2019-04-09T03:21:08.533Z,3.13
2019-04-09T03:23:41.978Z,2.43
2019-04-09T03:26:31.094Z,3.47
2019-04-09T03:29:20.467Z,2.60
2019-04-09T03:32:10.256Z,2.50
2019-04-09T03:34:48.214Z,2.93
2019-04-09T03:37:43.710Z,2.93
2019-04-09T03:40:48.115Z,2.90
2019-04-09T03:43:39.929Z,2.53
2019-04-09T03:46:13.741Z,2.67
2019-04-09T03:49:03.094Z,2.30
2019-04-09T03:51:43.889Z,2.90
2019-04-09T03:54:28.738Z,3.37
2019-04-09T03:57:15.327Z,3.10
2019-04-09T03:59:51.907Z,2.70
2019-04-09T04:02:36.898Z,2.77
2019-04-09T04:05:26.510Z,2.40
2019-04-09T04:08:11.923Z,2.93
2019-04-09T04:10:55.918Z,2.90
2019-04-09T04:13:45.570Z,2.87
2019-04-09T04:16:32.525Z,2.77
2019-04-09T04:19:08.605Z,2.40
2019-04-09T04:21:57.944Z,2.60
2019-04-09T04:24:57.125Z,2.77
2019-04-09T04:27:42.464Z,2.90
2019-04-09T04:30:38.418Z,2.60
2019-04-09T04:33:25.095Z,3.10
2019-04-09T04:36:09.902Z,2.80
2019-04-09T04:38:53.891Z,3.10
2019-04-09T04:41:28.068Z,2.50
2019-04-09T04:44:14.542Z,2.77
2019-04-09T04:47:01.210Z,2.63
2019-04-09T04:49:51.769Z,2.47
2019-04-09T04:52:50.410Z,2.90
2019-04-09T04:56:01.631Z,2.60
2019-04-09T04:58:50.016Z,3.20
2019-04-09T05:01:34.740Z,2.73
2019-04-09T05:04:21.709Z,2.63
2019-04-09T05:07:17.259Z,3.10
2019-04-09T05:10:03.417Z,4.10
2019-04-09T05:12:56.208Z,3.67
2019-04-09T05:15:33.207Z,4.00
2019-04-09T05:18:11.176Z,4.33
2019-04-09T05:21:00.549Z,4.87
2019-04-09T05:23:56.223Z,4.60
2019-04-09T05:26:50.595Z,4.83
2019-04-09T05:29:36.031Z,5.43
2019-04-09T05:32:36.254Z,4.70
2019-04-09T05:35:29.904Z,4.97
2019-04-09T05:38:03.074Z,4.83
2019-04-09T05:40:47.568Z,4.60
2019-04-09T05:43:42.074Z,5.33
2019-04-09T05:46:43.857Z,4.10
2019-04-09T05:49:30.333Z,4.33
2019-04-09T05:52:15.289Z,3.87
2019-04-09T05:55:06.415Z,3.70
2019-04-09T05:57:53.004Z,4.27
2019-04-09T06:00:37.837Z,4.07
2019-04-09T06:03:24.152Z,4.40
2019-04-09T06:06:07.234Z,3.40
2019-04-09T06:08:46.708Z,4.37
2019-04-09T06:11:13.787Z,3.90
2019-04-09T06:13:41.875Z,3.73
2019-04-09T06:16:09.869Z,3.90
2019-04-09T06:18:36.865Z,4.13
2019-04-09T06:21:05.567Z,4.23
2019-04-09T06:23:32.471Z,4.13
2019-04-09T06:26:00.089Z,4.70
2019-04-09T06:28:28.034Z,4.30
2019-04-09T06:30:54.867Z,4.30
2019-04-09T06:33:44.115Z,4.50
2019-04-09T06:36:21.155Z,4.93
2019-04-09T06:39:08.261Z,3.50
2019-04-09T06:41:52.059Z,4.00
2019-04-09T06:44:37.090Z,3.70
2019-04-09T06:47:32.906Z,3.37
2019-04-09T06:50:11.225Z,4.53
2019-04-09T06:52:46.736Z,3.43
2019-04-09T06:55:33.044Z,4.10
2019-04-09T06:58:28.195Z,4.27
2019-04-09T07:01:14.992Z,3.63
2019-04-09T07:04:10.609Z,3.43
2019-04-09T07:07:00.003Z,4.60
2019-04-09T07:09:46.319Z,3.70
2019-04-09T07:12:22.266Z,3.63
2019-04-09T07:14:56.091Z,4.20
2019-04-09T07:17:48.955Z,3.77
2019-04-09T07:20:47.402Z,3.47
2019-04-09T07:23:22.530Z,3.40
2019-04-09T07:26:23.737Z,3.30
2019-04-09T07:29:06.231Z,3.33
2019-04-09T07:32:07.832Z,2.97
2019-04-09T07:35:00.269Z,3.90
2019-04-09T07:37:45.907Z,3.80
2019-04-09T07:40:32.608Z,3.33
2019-04-09T07:43:24.147Z,3.67
2019-04-09T07:46:19.825Z,3.13
2019-04-09T07:49:06.146Z,2.93
2019-04-09T07:51:52.236Z,3.77
2019-04-09T07:54:40.699Z,3.40
2019-04-09T07:57:19.792Z,3.80
2019-04-09T08:00:14.431Z,2.80
2019-04-09T08:03:04.977Z,3.30
2019-04-09T08:05:48.576Z,3.10
2019-04-09T08:08:42.429Z,3.10
2019-04-09T08:11:44.488Z,3.23
2019-04-09T08:14:40.013Z,2.83
2019-04-09T08:17:14.189Z,3.20
2019-04-09T08:20:03.647Z,3.20
2019-04-09T08:22:58.932Z,3.60
2019-04-09T08:25:48.508Z,2.90
2019-04-09T08:28:42.385Z,2.73
2019-04-09T08:31:37.638Z,3.40
2019-04-09T08:34:21.956Z,3.10
2019-04-09T08:37:17.800Z,3.57
2019-04-09T08:40:14.836Z,2.80
2019-04-09T08:43:16.321Z,3.50
2019-04-09T08:46:11.608Z,2.83
2019-04-09T08:49:02.102Z,3.90
2019-04-09T08:51:51.718Z,2.77
2019-04-09T08:54:37.106Z,2.60
2019-04-09T08:57:14.742Z,3.30
2019-04-09T09:00:01.850Z,2.77
2019-04-09T09:02:51.396Z,3.40
2019-04-09T09:05:35.867Z,3.00
2019-04-09T09:08:09.043Z,3.33
2019-04-09T09:11:07.336Z,2.93
2019-04-09T09:13:56.050Z,3.13
2019-04-09T09:16:48.031Z,2.40
2019-04-09T09:19:38.515Z,2.70
2019-04-09T09:22:24.972Z,2.57
2019-04-09T09:25:14.267Z,2.80
2019-04-09T09:27:56.210Z,2.87
2019-04-09T09:31:02.261Z,3.23
2019-04-09T09:33:38.453Z,3.03
2019-04-09T09:36:24.530Z,3.17
2019-04-09T09:39:10.400Z,2.60
2019-04-09T09:41:46.567Z,2.53
2019-04-09T09:44:34.606Z,2.70
2019-04-09T09:47:16.279Z,2.60
2019-04-09T09:50:10.207Z,2.70
2019-04-09T09:53:01.230Z,2.70
2019-04-09T09:55:35.721Z,2.30
2019-04-09T09:58:22.395Z,2.57
2019-04-09T10:01:14.179Z,2.93
2019-04-09T10:03:55.242Z,2.40
2019-04-09T10:06:48.962Z,2.57
2019-04-09T10:09:51.098Z,2.40
2019-04-09T10:12:41.096Z,2.73
2019-04-09T10:15:19.524Z,2.60
2019-04-09T10:18:06.466Z,2.80
2019-04-09T10:20:49.438Z,2.77
2019-04-09T10:23:42.050Z,2.80
2019-04-09T10:26:28.216Z,2.93
2019-04-09T10:29:23.851Z,3.50
2019-04-09T10:32:21.782Z,2.53
2019-04-09T10:35:04.307Z,2.90
2019-04-09T10:38:01.149Z,2.80
2019-04-09T10:40:46.749Z,2.93
2019-04-09T10:43:41.947Z,2.73
2019-04-09T10:46:35.601Z,2.73
2019-04-09T10:49:25.074Z,2.50
2019-04-09T10:52:52.611Z,2.40
2019-04-09T10:55:37.538Z,2.43
2019-04-09T10:58:24.507Z,2.73
2019-04-09T11:01:35.401Z,3.70
2019-04-09T11:04:07.909Z,3.70
2019-04-09T11:07:00.576Z,4.90
2019-04-09T11:09:49.074Z,4.03
2019-04-09T11:12:33.086Z,4.57
2019-04-09T11:15:22.742Z,4.17
2019-04-09T11:18:03.352Z,4.00
2019-04-09T11:20:46.943Z,3.70
2019-04-09T11:23:35.537Z,4.37
2019-04-09T11:26:25.281Z,3.90
2019-04-09T11:29:15.072Z,3.73
2019-04-09T11:32:10.975Z,4.53
2019-04-09T11:34:55.686Z,3.80
2019-04-09T11:37:50.940Z,3.60
2019-04-09T11:40:23.003Z,3.90
2019-04-09T11:43:24.696Z,3.70
2019-04-09T11:46:15.107Z,3.63
2019-04-09T11:49:12.736Z,2.97
2019-04-09T11:52:02.086Z,3.10
2019-04-09T11:54:42.894Z,3.03
2019-04-09T11:57:29.383Z,3.10
2019-04-09T12:00:26.393Z,3.50
2019-04-09T12:03:22.995Z,6.10
2019-04-09T12:06:18.610Z,3.40
2019-04-09T12:08:55.392Z,3.90
2019-04-09T12:11:33.385Z,3.50
2019-04-09T12:14:32.004Z,3.97
2019-04-09T12:17:08.545Z,5.83
2019-04-09T12:20:06.294Z,3.47
2019-04-09T12:23:03.948Z,3.87
2019-04-09T12:25:50.528Z,3.83
2019-04-09T12:28:46.661Z,4.00
2019-04-09T12:31:34.351Z,4.17
2019-04-09T12:34:19.329Z,5.27
2019-04-09T12:37:06.950Z,4.37
2019-04-09T12:40:06.566Z,4.07
2019-04-09T12:42:51.873Z,4.37
2019-04-09T12:45:38.376Z,3.87
2019-04-09T12:48:23.814Z,5.37
2019-04-09T12:51:02.883Z,3.80
2019-04-09T12:53:49.540Z,3.80
2019-04-09T12:56:26.059Z,4.33
2019-04-09T12:59:07.793Z,4.27
2019-04-09T13:01:55.277Z,3.87
2019-04-09T13:04:44.747Z,3.87
2019-04-09T13:07:40.394Z,3.97
2019-04-09T13:10:25.594Z,5.00
2019-04-09T13:13:18.490Z,4.13
2019-04-09T13:16:17.694Z,4.13
2019-04-09T13:19:05.935Z,3.30
2019-04-09T13:21:41.304Z,4.80
2019-04-09T13:24:31.457Z,3.10
2019-04-09T13:27:12.371Z,4.23
2019-04-09T13:30:11.502Z,3.17
2019-04-09T13:32:56.812Z,4.00
2019-04-09T13:35:52.513Z,3.43
2019-04-09T13:38:33.192Z,3.00
2019-04-09T13:41:15.920Z,3.40
2019-04-09T13:44:05.237Z,4.03
2019-04-09T13:46:41.276Z,3.97
2019-04-09T13:49:31.519Z,3.47
2019-04-09T13:52:27.773Z,2.90
2019-04-09T13:54:55.708Z,3.00
2019-04-09T13:57:23.357Z,3.53
2019-04-09T13:59:50.576Z,3.20
2019-04-09T14:02:18.882Z,3.70
2019-04-09T14:04:54.293Z,3.40
2019-04-09T14:07:21.308Z,2.90
2019-04-09T14:09:48.312Z,3.13
2019-04-09T14:12:15.931Z,3.73
2019-04-09T14:14:43.472Z,3.20
2019-04-09T14:17:11.543Z,2.73
2019-04-09T14:19:49.279Z,3.00
2019-04-09T14:22:08.046Z,3.50
2019-04-09T14:24:35.448Z,2.97
2019-04-09T14:27:03.677Z,3.13
2019-04-09T14:29:31.123Z,2.90
2019-04-09T14:31:58.533Z,3.57
2019-04-09T14:34:26.656Z,3.17
2019-04-09T14:36:54.263Z,2.40
2019-04-09T14:39:21.821Z,3.20
2019-04-09T14:41:49.359Z,3.10
2019-04-09T14:44:16.841Z,3.40
2019-04-09T14:46:44.192Z,3.47
2019-04-09T14:49:11.938Z,3.23
2019-04-09T14:51:40.138Z,3.67
2019-04-09T14:54:09.726Z,2.57
2019-04-09T14:56:38.852Z,3.20
2019-04-09T14:59:06.122Z,2.80
2019-04-09T15:01:33.339Z,2.77
2019-04-09T15:04:01.133Z,2.77
2019-04-09T15:06:28.573Z,2.70
2019-04-09T15:08:56.210Z,2.63
2019-04-09T15:11:23.365Z,2.53
2019-04-09T15:13:50.940Z,2.50
2019-04-09T15:16:19.248Z,2.80
2019-04-09T15:18:47.854Z,3.07
2019-04-09T15:21:35.302Z,2.67
2019-04-09T15:24:03.222Z,2.97
2019-04-09T15:26:30.733Z,2.47
2019-04-09T15:28:58.367Z,2.77
2019-04-09T15:31:25.451Z,2.50
2019-04-09T15:33:53.171Z,2.40
2019-04-09T15:36:20.639Z,3.00
2019-04-09T15:38:48.530Z,2.40
2019-04-09T15:41:15.683Z,2.60
2019-04-09T15:43:42.820Z,2.40
2019-04-09T15:46:10.917Z,2.73
2019-04-09T15:48:38.595Z,2.80
2019-04-09T15:51:06.739Z,2.50
2019-04-09T15:53:38.019Z,2.10
2019-04-09T15:56:02.695Z,2.90
2019-04-09T15:58:29.704Z,2.80
2019-04-09T16:00:56.978Z,2.63
2019-04-09T16:03:27.885Z,3.20
2019-04-09T16:05:52.786Z,2.73
2019-04-09T16:08:20.674Z,3.07
2019-04-09T16:10:48.493Z,2.40
2019-04-09T16:13:16.388Z,2.20
2019-04-09T16:15:43.755Z,2.40
2019-04-09T16:18:11.217Z,2.33
2019-04-09T16:20:38.818Z,3.70
2019-04-09T16:23:07.051Z,2.63
2019-04-09T16:25:34.815Z,2.80
2019-04-09T16:28:02.643Z,2.40
2019-04-09T16:30:30.064Z,2.80
2019-04-09T16:33:06.056Z,2.77
2019-04-09T16:35:26.423Z,2.73
2019-04-09T16:37:54.046Z,3.00
2019-04-09T16:40:21.395Z,2.50
2019-04-09T16:42:48.852Z,3.67
2019-04-09T16:45:17.470Z,4.43
2019-04-09T16:47:47.093Z,3.87
2019-04-09T16:50:14.720Z,3.70
2019-04-09T16:52:42.592Z,3.43
2019-04-09T16:55:13.318Z,4.27
2019-04-09T16:57:41.472Z,4.20
2019-04-09T17:00:09.095Z,3.40
2019-04-09T17:02:36.591Z,4.97
2019-04-09T17:05:05.449Z,4.00
2019-04-09T17:07:33.627Z,9.30
2019-04-09T17:10:01.063Z,5.50
2019-04-09T17:12:28.772Z,4.22
2019-04-09T17:14:55.985Z,4.23
2019-04-09T17:17:25.237Z,4.00
2019-04-09T17:19:53.410Z,5.20
2019-04-09T17:22:20.756Z,3.80
2019-04-09T17:24:48.104Z,3.17
2019-04-09T17:27:16.555Z,6.50
2019-04-09T17:29:43.755Z,6.03
2019-04-09T17:32:11.692Z,5.73
2019-04-09T17:34:40.698Z,6.13
2019-04-09T17:37:09.137Z,5.23
2019-04-09T17:39:37.472Z,5.23
2019-04-09T17:42:09.844Z,5.83
2019-04-09T17:44:34.001Z,5.30
2019-04-09T17:47:01.678Z,5.60
2019-04-09T17:49:29.247Z,5.37
2019-04-09T17:51:57.591Z,6.00
2019-04-09T17:54:25.964Z,5.57
2019-04-09T17:56:54.525Z,5.50
2019-04-09T17:59:22.862Z,5.73
2019-04-09T18:01:50.294Z,5.00
2019-04-09T18:04:18.062Z,5.10
2019-04-09T18:06:46.289Z,4.53
2019-04-09T18:09:13.355Z,5.80
2019-04-09T18:11:40.893Z,4.30
2019-04-09T18:14:08.190Z,5.00
2019-04-09T18:16:36.334Z,5.50
2019-04-09T18:19:04.452Z,6.67
2019-04-09T18:21:32.379Z,3.67
2019-04-09T18:24:00.506Z,3.80
2019-04-09T18:26:28.484Z,11.93
2019-04-09T18:28:56.539Z,11.10
2019-04-09T18:31:30.055Z,11.67
2019-04-09T18:33:54.271Z,8.53
2019-04-09T18:36:23.008Z,9.00
2019-04-09T18:38:50.812Z,9.40
2019-04-09T18:41:18.061Z,9.27
2019-04-09T18:43:46.660Z,10.47
2019-04-09T18:46:14.134Z,11.47
2019-04-09T18:48:46.036Z,9.47
2019-04-09T18:51:10.611Z,10.10
2019-04-09T18:53:38.821Z,11.20
2019-04-09T18:56:06.709Z,9.77
2019-04-09T18:58:34.559Z,9.70
2019-04-09T19:01:02.433Z,11.50
2019-04-09T19:03:29.912Z,10.20
2019-04-09T19:05:57.165Z,8.73
2019-04-09T19:08:24.825Z,9.20
2019-04-09T19:10:52.390Z,8.53
2019-04-09T19:13:19.843Z,8.57
2019-04-09T19:15:47.162Z,8.70
2019-04-09T19:18:14.550Z,9.60
2019-04-09T19:20:41.906Z,7.90
2019-04-09T19:23:09.673Z,8.70
2019-04-09T19:25:37.840Z,10.03
2019-04-09T19:28:05.260Z,9.23
2019-04-09T19:30:32.958Z,8.63
2019-04-09T19:33:02.038Z,8.70
2019-04-09T19:35:34.872Z,8.70
2019-04-09T19:38:00.663Z,9.20
2019-04-09T19:40:34.125Z,9.00
2019-04-09T19:43:01.606Z,8.53
2019-04-09T19:45:43.573Z,8.63
2019-04-09T19:48:11.267Z,8.70
2019-04-09T19:50:39.622Z,8.37
2019-04-09T19:53:07.574Z,9.03
2019-04-09T19:55:36.037Z,8.27
2019-04-09T19:58:04.366Z,8.30
2019-04-09T20:00:32.890Z,8.17
2019-04-09T20:03:00.724Z,7.40
2019-04-09T20:05:35.262Z,8.67
2019-04-09T20:07:58.728Z,7.23
2019-04-09T20:10:35.167Z,6.77
2019-04-09T20:13:02.763Z,7.67
2019-04-09T20:15:31.125Z,7.03
2019-04-09T20:17:59.902Z,7.20
2019-04-09T20:20:28.076Z,8.10
2019-04-09T20:22:55.959Z,7.37
2019-04-09T20:25:23.881Z,7.80
2019-04-09T20:27:51.355Z,7.87
2019-04-09T20:30:19.536Z,8.07
2019-04-09T20:32:46.692Z,7.90
2019-04-09T20:35:15.943Z,7.07
2019-04-09T20:37:43.586Z,7.20
2019-04-09T20:40:11.922Z,6.10
2019-04-09T20:42:39.550Z,6.00
2019-04-09T20:45:07.037Z,7.00
2019-04-09T20:47:35.104Z,6.30
2019-04-09T20:50:03.240Z,7.10
2019-04-09T20:52:30.350Z,6.13
2019-04-09T20:55:00.329Z,6.57
2019-04-09T20:57:27.646Z,6.50
2019-04-09T21:00:16.433Z,6.70
2019-04-09T21:02:47.632Z,7.20
2019-04-09T21:05:18.974Z,6.23
2019-04-09T21:07:46.756Z,6.90
2019-04-09T21:10:14.923Z,7.63
2019-04-09T21:12:42.649Z,6.87
2019-04-09T21:15:10.321Z,5.63
2019-04-09T21:17:37.845Z,5.87
2019-04-09T21:20:05.542Z,6.33
2019-04-09T21:22:32.930Z,7.07
2019-04-09T21:25:00.282Z,5.70
2019-04-09T21:27:27.673Z,5.67
2019-04-09T21:29:55.337Z,5.80
2019-04-09T21:32:23.005Z,5.83
2019-04-09T21:34:50.737Z,5.87
2019-04-09T21:37:17.919Z,5.50
2019-04-09T21:39:45.069Z,5.63
2019-04-09T21:42:12.398Z,5.23
2019-04-09T21:44:40.777Z,5.93
2019-04-09T21:47:08.153Z,6.00
2019-04-09T21:49:35.511Z,5.37
2019-04-09T21:52:02.862Z,6.20
2019-04-09T21:54:30.319Z,5.63
2019-04-09T21:56:59.070Z,5.60
2019-04-09T21:59:27.585Z,5.87
2019-04-09T22:01:55.986Z,5.63
2019-04-09T22:04:25.727Z,6.43
2019-04-09T22:06:53.128Z,5.90
2019-04-09T22:09:20.719Z,5.23
2019-04-09T22:11:49.149Z,4.97
2019-04-09T22:14:17.350Z,5.10
2019-04-09T22:16:45.310Z,5.50
2019-04-09T22:19:12.776Z,5.70
2019-04-09T22:21:40.787Z,4.40
2019-04-09T22:24:08.192Z,5.57
2019-04-09T22:26:35.931Z,5.23
2019-04-09T22:29:03.102Z,5.50
2019-04-09T22:31:33.019Z,5.10
2019-04-09T22:33:59.451Z,4.80
2019-04-09T22:36:32.698Z,4.63
2019-04-09T22:38:56.515Z,5.40
2019-04-09T22:41:24.625Z,4.27
2019-04-09T22:43:53.362Z,5.50
2019-04-09T22:46:20.932Z,5.13
2019-04-09T22:48:48.639Z,4.80
2019-04-09T22:51:16.822Z,5.10
2019-04-09T22:53:45.691Z,5.50
2019-04-09T22:56:13.418Z,4.83
2019-04-09T22:58:44.954Z,5.97
2019-04-09T23:01:33.111Z,5.10
2019-04-09T23:04:18.592Z,4.47
2019-04-09T23:07:06.322Z,4.83
2019-04-09T23:09:53.336Z,4.50
2019-04-09T23:12:32.468Z,5.07
2019-04-09T23:15:00.969Z,4.33
2019-04-09T23:17:30.115Z,4.20
2019-04-09T23:19:58.602Z,5.17
2019-04-09T23:22:26.468Z,5.10
2019-04-09T23:24:53.996Z,4.90
2019-04-09T23:27:22.026Z,4.37
2019-04-09T23:29:51.003Z,4.23
2019-04-09T23:32:19.260Z,4.00
2019-04-09T23:34:46.844Z,4.60
2019-04-09T23:37:15.288Z,4.30
2019-04-09T23:39:42.679Z,4.60
2019-04-09T23:42:10.033Z,4.13
2019-04-09T23:44:40.698Z,4.30
2019-04-09T23:47:06.685Z,4.77
2019-04-09T23:49:34.930Z,4.80
2019-04-09T23:52:02.315Z,4.03
2019-04-09T23:54:29.920Z,4.80
2019-04-09T23:56:58.116Z,3.90
2019-04-09T23:59:26.156Z,3.83
